sensor_id;sensor_type;location;lat;lon;timestamp;temperature;humidity
8882;DHT22;4477;48.736;9.176;2022-11-03T00:00:58;4.40;99.90
8882;DHT22;4477;48.736;9.176;2022-11-03T00:03:25;4.50;99.90
8882;DHT22;4477;48.736;9.176;2022-11-03T00:05:52;4.50;99.90
8882;DHT22;4477;48.736;9.176;2022-11-03T00:08:31;4.60;99.90
8882;DHT22;4477;48.736;9.176;2022-11-03T00:11:09;4.50;99.90
8882;DHT22;4477;48.736;9.176;2022-11-03T00:13:38;4.40;99.90
8882;DHT22;4477;48.736;9.176;2022-11-03T00:16:07;4.30;99.90
8882;DHT22;4477;48.736;9.176;2022-11-03T00:18:35;4.20;99.90
8882;DHT22;4477;48.736;9.176;2022-11-03T00:21:04;4.20;99.90
8882;DHT22;4477;48.736;9.176;2022-11-03T00:23:33;4.10;99.90
8882;DHT22;4477;48.736;9.176;2022-11-03T00:26:08;4.00;99.90
8882;DHT22;4477;48.736;9.176;2022-11-03T00:28:35;4.00;99.90
8882;DHT22;4477;48.736;9.176;2022-11-03T00:31:08;3.90;99.90
8882;DHT22;4477;48.736;9.176;2022-11-03T00:33:36;3.80;99.90
8882;DHT22;4477;48.736;9.176;2022-11-03T00:36:04;3.90;99.90
8882;DHT22;4477;48.736;9.176;2022-11-03T00:38:32;3.80;99.90
8882;DHT22;4477;48.736;9.176;2022-11-03T00:41:00;3.80;99.90
8882;DHT22;4477;48.736;9.176;2022-11-03T00:43:28;3.80;99.90
8882;DHT22;4477;48.736;9.176;2022-11-03T00:45:55;3.80;99.90
8882;DHT22;4477;48.736;9.176;2022-11-03T00:48:24;3.80;99.90
8882;DHT22;4477;48.736;9.176;2022-11-03T00:51:06;3.70;99.90
8882;DHT22;4477;48.736;9.176;2022-11-03T00:53:34;3.60;99.90
8882;DHT22;4477;48.736;9.176;2022-11-03T00:56:03;3.60;99.90
8882;DHT22;4477;48.736;9.176;2022-11-03T00:58:30;3.50;99.90
8882;DHT22;4477;48.736;9.176;2022-11-03T01:01:01;3.50;99.90
8882;DHT22;4477;48.736;9.176;2022-11-03T01:03:31;3.50;99.90
8882;DHT22;4477;48.736;9.176;2022-11-03T01:05:58;3.40;99.90
8882;DHT22;4477;48.736;9.176;2022-11-03T01:08:43;3.30;99.90
8882;DHT22;4477;48.736;9.176;2022-11-03T01:11:11;3.20;99.90
8882;DHT22;4477;48.736;9.176;2022-11-03T01:13:56;3.20;99.90
8882;DHT22;4477;48.736;9.176;2022-11-03T01:16:24;3.10;99.90
8882;DHT22;4477;48.736;9.176;2022-11-03T01:18:52;3.10;99.90
8882;DHT22;4477;48.736;9.176;2022-11-03T01:21:20;3.10;99.90
8882;DHT22;4477;48.736;9.176;2022-11-03T01:23:47;3.10;99.90
8882;DHT22;4477;48.736;9.176;2022-11-03T01:26:14;3.00;99.90
8882;DHT22;4477;48.736;9.176;2022-11-03T01:28:43;3.10;99.90
8882;DHT22;4477;48.736;9.176;2022-11-03T01:31:12;3.10;99.90
8882;DHT22;4477;48.736;9.176;2022-11-03T01:33:40;3.10;99.90
8882;DHT22;4477;48.736;9.176;2022-11-03T01:36:09;2.90;99.90
8882;DHT22;4477;48.736;9.176;2022-11-03T01:38:36;2.80;99.90
8882;DHT22;4477;48.736;9.176;2022-11-03T01:41:05;2.80;99.90
8882;DHT22;4477;48.736;9.176;2022-11-03T01:43:33;2.80;99.90
8882;DHT22;4477;48.736;9.176;2022-11-03T01:46:04;2.70;99.90
8882;DHT22;4477;48.736;9.176;2022-11-03T01:48:34;2.70;99.90
8882;DHT22;4477;48.736;9.176;2022-11-03T01:51:04;2.80;99.90
8882;DHT22;4477;48.736;9.176;2022-11-03T01:53:34;2.70;99.90
8882;DHT22;4477;48.736;9.176;2022-11-03T01:56:03;2.60;99.90
8882;DHT22;4477;48.736;9.176;2022-11-03T01:58:32;2.60;99.90
8882;DHT22;4477;48.736;9.176;2022-11-03T02:06:05;2.60;99.90
8882;DHT22;4477;48.736;9.176;2022-11-03T02:08:38;2.60;99.90
8882;DHT22;4477;48.736;9.176;2022-11-03T02:11:07;2.60;99.90
8882;DHT22;4477;48.736;9.176;2022-11-03T02:13:47;2.60;99.90
8882;DHT22;4477;48.736;9.176;2022-11-03T02:16:14;2.50;99.90
8882;DHT22;4477;48.736;9.176;2022-11-03T02:18:42;2.50;99.90
8882;DHT22;4477;48.736;9.176;2022-11-03T02:21:22;2.50;99.90
8882;DHT22;4477;48.736;9.176;2022-11-03T02:23:58;2.50;99.90
8882;DHT22;4477;48.736;9.176;2022-11-03T02:26:28;2.50;99.90
8882;DHT22;4477;48.736;9.176;2022-11-03T02:28:54;2.60;99.90
8882;DHT22;4477;48.736;9.176;2022-11-03T02:31:28;2.70;99.90
8882;DHT22;4477;48.736;9.176;2022-11-03T02:34:03;2.60;99.90
8882;DHT22;4477;48.736;9.176;2022-11-03T02:36:34;2.50;99.90
8882;DHT22;4477;48.736;9.176;2022-11-03T02:39:04;2.50;99.90
8882;DHT22;4477;48.736;9.176;2022-11-03T02:41:35;2.40;99.90
8882;DHT22;4477;48.736;9.176;2022-11-03T02:44:04;2.40;99.90
8882;DHT22;4477;48.736;9.176;2022-11-03T02:46:33;2.50;99.90
8882;DHT22;4477;48.736;9.176;2022-11-03T02:49:01;2.50;99.90
8882;DHT22;4477;48.736;9.176;2022-11-03T02:51:28;2.60;99.90
8882;DHT22;4477;48.736;9.176;2022-11-03T02:54:01;2.60;99.90
8882;DHT22;4477;48.736;9.176;2022-11-03T02:56:30;2.60;99.90
8882;DHT22;4477;48.736;9.176;2022-11-03T02:59:02;2.80;99.90
8882;DHT22;4477;48.736;9.176;2022-11-03T03:01:32;2.90;99.90
8882;DHT22;4477;48.736;9.176;2022-11-03T03:04:04;2.90;99.90
8882;DHT22;4477;48.736;9.176;2022-11-03T03:06:35;2.90;99.90
8882;DHT22;4477;48.736;9.176;2022-11-03T03:09:06;2.90;99.90
8882;DHT22;4477;48.736;9.176;2022-11-03T03:11:35;2.80;99.90
8882;DHT22;4477;48.736;9.176;2022-11-03T03:14:10;2.90;99.90
8882;DHT22;4477;48.736;9.176;2022-11-03T03:16:44;2.90;99.90
8882;DHT22;4477;48.736;9.176;2022-11-03T03:19:20;2.90;99.90
8882;DHT22;4477;48.736;9.176;2022-11-03T03:21:50;2.90;99.90
8882;DHT22;4477;48.736;9.176;2022-11-03T03:24:24;2.80;99.90
8882;DHT22;4477;48.736;9.176;2022-11-03T03:26:55;2.70;99.90
8882;DHT22;4477;48.736;9.176;2022-11-03T03:29:28;2.60;99.90
8882;DHT22;4477;48.736;9.176;2022-11-03T03:32:02;2.60;99.90
8882;DHT22;4477;48.736;9.176;2022-11-03T03:34:31;2.70;99.90
8882;DHT22;4477;48.736;9.176;2022-11-03T03:36:59;2.70;99.90
8882;DHT22;4477;48.736;9.176;2022-11-03T03:39:29;2.80;99.90
8882;DHT22;4477;48.736;9.176;2022-11-03T03:41:58;2.80;99.90
8882;DHT22;4477;48.736;9.176;2022-11-03T03:44:29;2.70;99.90
8882;DHT22;4477;48.736;9.176;2022-11-03T03:46:59;2.70;99.90
8882;DHT22;4477;48.736;9.176;2022-11-03T03:49:27;2.70;99.90
8882;DHT22;4477;48.736;9.176;2022-11-03T03:54:29;2.80;99.90
8882;DHT22;4477;48.736;9.176;2022-11-03T03:57:00;2.80;99.90
8882;DHT22;4477;48.736;9.176;2022-11-03T03:59:29;2.80;99.90
8882;DHT22;4477;48.736;9.176;2022-11-03T04:01:56;2.80;99.90
8882;DHT22;4477;48.736;9.176;2022-11-03T04:04:24;2.80;99.90
8882;DHT22;4477;48.736;9.176;2022-11-03T04:06:51;2.70;99.90
8882;DHT22;4477;48.736;9.176;2022-11-03T04:09:38;2.70;99.90
8882;DHT22;4477;48.736;9.176;2022-11-03T04:12:06;2.70;99.90
8882;DHT22;4477;48.736;9.176;2022-11-03T04:14:52;2.80;99.90
8882;DHT22;4477;48.736;9.176;2022-11-03T04:17:38;2.90;99.90
8882;DHT22;4477;48.736;9.176;2022-11-03T04:20:25;3.10;99.90
8882;DHT22;4477;48.736;9.176;2022-11-03T04:23:18;3.20;99.90
8882;DHT22;4477;48.736;9.176;2022-11-03T04:25:47;3.20;99.90
8882;DHT22;4477;48.736;9.176;2022-11-03T04:28:15;3.20;99.90
8882;DHT22;4477;48.736;9.176;2022-11-03T04:30:44;3.20;99.90
8882;DHT22;4477;48.736;9.176;2022-11-03T04:33:13;3.30;99.90
8882;DHT22;4477;48.736;9.176;2022-11-03T04:35:41;3.30;99.90
8882;DHT22;4477;48.736;9.176;2022-11-03T04:38:20;3.30;99.90
8882;DHT22;4477;48.736;9.176;2022-11-03T04:40:50;3.30;99.90
8882;DHT22;4477;48.736;9.176;2022-11-03T04:43:19;3.20;99.90
8882;DHT22;4477;48.736;9.176;2022-11-03T04:45:49;3.20;99.90
8882;DHT22;4477;48.736;9.176;2022-11-03T04:48:20;3.20;99.90
8882;DHT22;4477;48.736;9.176;2022-11-03T04:50:49;3.10;99.90
8882;DHT22;4477;48.736;9.176;2022-11-03T04:53:18;3.00;99.90
8882;DHT22;4477;48.736;9.176;2022-11-03T04:55:48;3.00;99.90
8882;DHT22;4477;48.736;9.176;2022-11-03T04:58:18;2.90;99.90
8882;DHT22;4477;48.736;9.176;2022-11-03T05:00:47;2.90;99.90
8882;DHT22;4477;48.736;9.176;2022-11-03T05:03:19;2.80;99.90
8882;DHT22;4477;48.736;9.176;2022-11-03T05:05:47;2.80;99.90
8882;DHT22;4477;48.736;9.176;2022-11-03T05:08:15;2.70;99.90
8882;DHT22;4477;48.736;9.176;2022-11-03T05:10:43;2.60;99.90
8882;DHT22;4477;48.736;9.176;2022-11-03T05:13:15;2.70;99.90
8882;DHT22;4477;48.736;9.176;2022-11-03T05:15:44;2.60;99.90
8882;DHT22;4477;48.736;9.176;2022-11-03T05:18:17;2.70;99.90
8882;DHT22;4477;48.736;9.176;2022-11-03T05:20:48;2.50;99.90
8882;DHT22;4477;48.736;9.176;2022-11-03T05:23:18;2.50;99.90
8882;DHT22;4477;48.736;9.176;2022-11-03T05:25:48;2.50;99.90
8882;DHT22;4477;48.736;9.176;2022-11-03T05:28:21;2.50;99.90
8882;DHT22;4477;48.736;9.176;2022-11-03T05:30:48;2.50;99.90
8882;DHT22;4477;48.736;9.176;2022-11-03T05:33:25;2.50;99.90
8882;DHT22;4477;48.736;9.176;2022-11-03T05:35:53;2.60;99.90
8882;DHT22;4477;48.736;9.176;2022-11-03T05:38:21;2.60;99.90
8882;DHT22;4477;48.736;9.176;2022-11-03T05:40:50;2.60;99.90
8882;DHT22;4477;48.736;9.176;2022-11-03T05:43:18;2.60;99.90
8882;DHT22;4477;48.736;9.176;2022-11-03T05:45:46;2.50;99.90
8882;DHT22;4477;48.736;9.176;2022-11-03T05:48:20;2.50;99.90
8882;DHT22;4477;48.736;9.176;2022-11-03T05:50:50;2.40;99.90
8882;DHT22;4477;48.736;9.176;2022-11-03T05:53:24;2.40;99.90
8882;DHT22;4477;48.736;9.176;2022-11-03T05:55:52;2.50;99.90
8882;DHT22;4477;48.736;9.176;2022-11-03T05:58:23;2.50;99.90
8882;DHT22;4477;48.736;9.176;2022-11-03T06:00:51;2.50;99.90
8882;DHT22;4477;48.736;9.176;2022-11-03T06:03:24;2.40;99.90
8882;DHT22;4477;48.736;9.176;2022-11-03T06:05:51;2.30;99.90
8882;DHT22;4477;48.736;9.176;2022-11-03T06:08:20;2.30;99.90
8882;DHT22;4477;48.736;9.176;2022-11-03T06:10:49;2.20;99.90
8882;DHT22;4477;48.736;9.176;2022-11-03T06:13:19;2.20;99.90
8882;DHT22;4477;48.736;9.176;2022-11-03T06:15:50;2.20;99.90
8882;DHT22;4477;48.736;9.176;2022-11-03T06:18:21;2.10;99.90
8882;DHT22;4477;48.736;9.176;2022-11-03T06:20:50;2.10;99.90
8882;DHT22;4477;48.736;9.176;2022-11-03T06:23:18;2.10;99.90
8882;DHT22;4477;48.736;9.176;2022-11-03T06:25:47;2.10;99.90
8882;DHT22;4477;48.736;9.176;2022-11-03T06:28:18;2.20;99.90
8882;DHT22;4477;48.736;9.176;2022-11-03T06:30:49;2.30;99.90
8882;DHT22;4477;48.736;9.176;2022-11-03T06:33:21;2.40;99.90
8882;DHT22;4477;48.736;9.176;2022-11-03T06:35:50;2.60;99.90
8882;DHT22;4477;48.736;9.176;2022-11-03T06:38:21;2.70;99.90
8882;DHT22;4477;48.736;9.176;2022-11-03T06:40:50;2.80;99.90
8882;DHT22;4477;48.736;9.176;2022-11-03T06:43:19;2.90;99.90
8882;DHT22;4477;48.736;9.176;2022-11-03T06:45:52;3.00;99.90
8882;DHT22;4477;48.736;9.176;2022-11-03T06:48:24;3.10;99.90
8882;DHT22;4477;48.736;9.176;2022-11-03T06:50:52;3.30;99.90
8882;DHT22;4477;48.736;9.176;2022-11-03T06:53:21;3.50;99.90
8882;DHT22;4477;48.736;9.176;2022-11-03T06:55:51;3.60;99.90
8882;DHT22;4477;48.736;9.176;2022-11-03T06:58:26;3.80;99.90
8882;DHT22;4477;48.736;9.176;2022-11-03T07:00:55;4.00;99.90
8882;DHT22;4477;48.736;9.176;2022-11-03T07:03:26;4.20;99.90
8882;DHT22;4477;48.736;9.176;2022-11-03T07:05:57;4.40;99.90
8882;DHT22;4477;48.736;9.176;2022-11-03T07:08:26;4.50;99.90
8882;DHT22;4477;48.736;9.176;2022-11-03T07:10:59;4.60;99.90
8882;DHT22;4477;48.736;9.176;2022-11-03T07:13:28;4.90;99.90
8882;DHT22;4477;48.736;9.176;2022-11-03T07:15:57;5.10;99.90
8882;DHT22;4477;48.736;9.176;2022-11-03T07:18:28;5.20;99.90
8882;DHT22;4477;48.736;9.176;2022-11-03T07:20:57;5.40;99.90
8882;DHT22;4477;48.736;9.176;2022-11-03T07:23:27;5.50;99.90
8882;DHT22;4477;48.736;9.176;2022-11-03T07:25:57;5.60;99.90
8882;DHT22;4477;48.736;9.176;2022-11-03T07:28:28;5.70;99.90
8882;DHT22;4477;48.736;9.176;2022-11-03T07:30:58;5.90;99.90
8882;DHT22;4477;48.736;9.176;2022-11-03T07:33:28;6.00;99.90
8882;DHT22;4477;48.736;9.176;2022-11-03T07:35:57;6.40;99.90
8882;DHT22;4477;48.736;9.176;2022-11-03T07:38:27;6.80;99.90
8882;DHT22;4477;48.736;9.176;2022-11-03T07:40:56;7.10;99.90
8882;DHT22;4477;48.736;9.176;2022-11-03T07:43:28;7.20;99.90
8882;DHT22;4477;48.736;9.176;2022-11-03T07:45:57;7.30;99.90
8882;DHT22;4477;48.736;9.176;2022-11-03T07:48:27;7.30;99.90
8882;DHT22;4477;48.736;9.176;2022-11-03T07:51:00;7.40;99.90
8882;DHT22;4477;48.736;9.176;2022-11-03T07:53:34;7.30;99.90
8882;DHT22;4477;48.736;9.176;2022-11-03T07:56:12;7.40;99.90
8882;DHT22;4477;48.736;9.176;2022-11-03T07:58:41;7.40;99.90
8882;DHT22;4477;48.736;9.176;2022-11-03T08:01:22;7.50;99.90
8882;DHT22;4477;48.736;9.176;2022-11-03T08:03:52;7.60;99.90
8882;DHT22;4477;48.736;9.176;2022-11-03T08:06:20;7.70;99.90
8882;DHT22;4477;48.736;9.176;2022-11-03T08:08:47;7.80;99.90
8882;DHT22;4477;48.736;9.176;2022-11-03T08:11:14;7.70;99.90
8882;DHT22;4477;48.736;9.176;2022-11-03T08:13:41;7.70;99.90
8882;DHT22;4477;48.736;9.176;2022-11-03T08:16:08;7.70;99.90
8882;DHT22;4477;48.736;9.176;2022-11-03T08:18:35;7.90;99.90
8882;DHT22;4477;48.736;9.176;2022-11-03T08:21:04;8.00;99.90
8882;DHT22;4477;48.736;9.176;2022-11-03T08:23:31;8.00;99.90
8882;DHT22;4477;48.736;9.176;2022-11-03T08:26:02;8.30;99.90
8882;DHT22;4477;48.736;9.176;2022-11-03T08:31:08;8.50;99.90
8882;DHT22;4477;48.736;9.176;2022-11-03T08:33:36;8.60;99.90
8882;DHT22;4477;48.736;9.176;2022-11-03T08:36:04;8.70;99.90
8882;DHT22;4477;48.736;9.176;2022-11-03T08:38:32;8.80;99.90
8882;DHT22;4477;48.736;9.176;2022-11-03T08:40:59;8.90;99.90
8882;DHT22;4477;48.736;9.176;2022-11-03T08:43:26;9.00;99.90
8882;DHT22;4477;48.736;9.176;2022-11-03T08:45:53;9.20;99.90
8882;DHT22;4477;48.736;9.176;2022-11-03T08:48:21;9.40;99.90
8882;DHT22;4477;48.736;9.176;2022-11-03T08:50:48;9.50;99.90
8882;DHT22;4477;48.736;9.176;2022-11-03T08:53:20;9.60;99.90
8882;DHT22;4477;48.736;9.176;2022-11-03T08:55:47;9.80;99.90
8882;DHT22;4477;48.736;9.176;2022-11-03T08:58:14;10.00;99.90
8882;DHT22;4477;48.736;9.176;2022-11-03T09:00:41;10.20;99.90
8882;DHT22;4477;48.736;9.176;2022-11-03T09:03:08;10.30;99.90
8882;DHT22;4477;48.736;9.176;2022-11-03T09:05:35;10.40;99.90
8882;DHT22;4477;48.736;9.176;2022-11-03T09:08:02;10.50;99.90
8882;DHT22;4477;48.736;9.176;2022-11-03T09:10:30;10.70;99.90
8882;DHT22;4477;48.736;9.176;2022-11-03T09:12:57;10.80;99.90
8882;DHT22;4477;48.736;9.176;2022-11-03T09:15:23;11.10;99.90
8882;DHT22;4477;48.736;9.176;2022-11-03T09:17:50;11.20;99.90
8882;DHT22;4477;48.736;9.176;2022-11-03T09:20:17;11.40;99.90
8882;DHT22;4477;48.736;9.176;2022-11-03T09:22:45;11.70;99.90
8882;DHT22;4477;48.736;9.176;2022-11-03T09:25:12;11.70;99.90
8882;DHT22;4477;48.736;9.176;2022-11-03T09:27:40;11.60;99.90
8882;DHT22;4477;48.736;9.176;2022-11-03T09:30:08;11.70;99.90
8882;DHT22;4477;48.736;9.176;2022-11-03T09:32:35;11.70;99.90
8882;DHT22;4477;48.736;9.176;2022-11-03T09:35:03;11.90;99.90
8882;DHT22;4477;48.736;9.176;2022-11-03T09:37:30;11.90;99.90
8882;DHT22;4477;48.736;9.176;2022-11-03T09:39:57;11.70;99.90
8882;DHT22;4477;48.736;9.176;2022-11-03T09:42:24;11.90;99.90
8882;DHT22;4477;48.736;9.176;2022-11-03T09:44:53;12.10;99.90
8882;DHT22;4477;48.736;9.176;2022-11-03T09:47:24;12.10;99.90
8882;DHT22;4477;48.736;9.176;2022-11-03T09:49:54;12.20;99.90
8882;DHT22;4477;48.736;9.176;2022-11-03T09:52:23;12.20;99.90
8882;DHT22;4477;48.736;9.176;2022-11-03T09:54:51;12.20;99.90
8882;DHT22;4477;48.736;9.176;2022-11-03T09:57:20;12.20;99.90
8882;DHT22;4477;48.736;9.176;2022-11-03T09:59:48;12.10;99.90
8882;DHT22;4477;48.736;9.176;2022-11-03T10:02:23;12.20;99.90
8882;DHT22;4477;48.736;9.176;2022-11-03T10:04:53;12.30;99.90
8882;DHT22;4477;48.736;9.176;2022-11-03T10:07:21;12.10;99.90
8882;DHT22;4477;48.736;9.176;2022-11-03T10:09:50;12.00;99.90
8882;DHT22;4477;48.736;9.176;2022-11-03T10:12:18;11.90;99.90
8882;DHT22;4477;48.736;9.176;2022-11-03T10:14:46;11.70;99.90
8882;DHT22;4477;48.736;9.176;2022-11-03T10:17:16;11.70;99.90
8882;DHT22;4477;48.736;9.176;2022-11-03T10:19:47;11.80;99.90
8882;DHT22;4477;48.736;9.176;2022-11-03T10:22:15;11.80;99.90
8882;DHT22;4477;48.736;9.176;2022-11-03T10:24:42;11.90;99.90
8882;DHT22;4477;48.736;9.176;2022-11-03T10:27:24;12.00;99.90
8882;DHT22;4477;48.736;9.176;2022-11-03T10:30:05;12.00;99.90
8882;DHT22;4477;48.736;9.176;2022-11-03T10:32:33;12.10;99.90
8882;DHT22;4477;48.736;9.176;2022-11-03T10:35:02;12.20;99.90
8882;DHT22;4477;48.736;9.176;2022-11-03T10:37:29;12.10;99.90
8882;DHT22;4477;48.736;9.176;2022-11-03T10:39:56;12.10;99.90
8882;DHT22;4477;48.736;9.176;2022-11-03T10:42:25;11.90;99.90
8882;DHT22;4477;48.736;9.176;2022-11-03T10:44:54;11.80;99.90
8882;DHT22;4477;48.736;9.176;2022-11-03T10:47:30;11.80;99.90
8882;DHT22;4477;48.736;9.176;2022-11-03T10:49:57;11.90;99.90
8882;DHT22;4477;48.736;9.176;2022-11-03T10:52:26;11.90;99.90
8882;DHT22;4477;48.736;9.176;2022-11-03T10:54:56;12.00;99.90
8882;DHT22;4477;48.736;9.176;2022-11-03T10:57:24;12.20;99.90
8882;DHT22;4477;48.736;9.176;2022-11-03T10:59:52;12.30;99.90
8882;DHT22;4477;48.736;9.176;2022-11-03T11:02:21;12.60;99.90
8882;DHT22;4477;48.736;9.176;2022-11-03T11:04:55;12.80;99.90
8882;DHT22;4477;48.736;9.176;2022-11-03T11:07:28;12.90;99.90
8882;DHT22;4477;48.736;9.176;2022-11-03T11:10:04;13.00;99.90
8882;DHT22;4477;48.736;9.176;2022-11-03T11:12:33;13.00;99.90
8882;DHT22;4477;48.736;9.176;2022-11-03T11:15:01;13.00;99.90
8882;DHT22;4477;48.736;9.176;2022-11-03T11:17:43;13.00;99.90
8882;DHT22;4477;48.736;9.176;2022-11-03T11:20:29;13.10;99.90
8882;DHT22;4477;48.736;9.176;2022-11-03T11:29:39;12.90;99.90
8882;DHT22;4477;48.736;9.176;2022-11-03T11:35:16;13.00;99.90
8882;DHT22;4477;48.736;9.176;2022-11-03T11:37:43;13.20;99.50
8882;DHT22;4477;48.736;9.176;2022-11-03T11:40:12;13.20;99.60
8882;DHT22;4477;48.736;9.176;2022-11-03T11:49:14;13.30;98.20
8882;DHT22;4477;48.736;9.176;2022-11-03T11:51:42;13.30;98.50
8882;DHT22;4477;48.736;9.176;2022-11-03T11:54:12;13.20;98.70
8882;DHT22;4477;48.736;9.176;2022-11-03T11:56:41;13.10;99.70
8882;DHT22;4477;48.736;9.176;2022-11-03T11:59:15;13.20;99.50
8882;DHT22;4477;48.736;9.176;2022-11-03T12:01:43;13.20;99.80
8882;DHT22;4477;48.736;9.176;2022-11-03T12:04:19;13.20;99.90
8882;DHT22;4477;48.736;9.176;2022-11-03T12:06:47;13.00;99.90
8882;DHT22;4477;48.736;9.176;2022-11-03T12:09:17;13.10;99.90
8882;DHT22;4477;48.736;9.176;2022-11-03T12:11:46;13.10;99.90
8882;DHT22;4477;48.736;9.176;2022-11-03T12:14:24;13.10;99.90
8882;DHT22;4477;48.736;9.176;2022-11-03T12:16:51;13.30;99.90
8882;DHT22;4477;48.736;9.176;2022-11-03T12:19:39;13.20;99.90
8882;DHT22;4477;48.736;9.176;2022-11-03T12:22:08;13.10;99.90
8882;DHT22;4477;48.736;9.176;2022-11-03T12:24:38;13.00;99.90
8882;DHT22;4477;48.736;9.176;2022-11-03T12:27:38;12.90;99.90
8882;DHT22;4477;48.736;9.176;2022-11-03T12:30:12;12.80;99.90
8882;DHT22;4477;48.736;9.176;2022-11-03T12:32:39;12.60;99.90
8882;DHT22;4477;48.736;9.176;2022-11-03T12:35:08;12.60;99.90
8882;DHT22;4477;48.736;9.176;2022-11-03T12:37:36;12.40;99.90
8882;DHT22;4477;48.736;9.176;2022-11-03T12:40:04;12.30;99.90
8882;DHT22;4477;48.736;9.176;2022-11-03T12:42:31;12.30;99.90
8882;DHT22;4477;48.736;9.176;2022-11-03T12:44:59;12.30;99.90
8882;DHT22;4477;48.736;9.176;2022-11-03T12:47:26;12.30;99.90
8882;DHT22;4477;48.736;9.176;2022-11-03T12:49:53;12.30;99.90
8882;DHT22;4477;48.736;9.176;2022-11-03T12:52:21;12.30;99.90
8882;DHT22;4477;48.736;9.176;2022-11-03T12:54:48;12.30;99.90
8882;DHT22;4477;48.736;9.176;2022-11-03T12:57:15;12.30;99.90
8882;DHT22;4477;48.736;9.176;2022-11-03T12:59:42;12.30;99.90
8882;DHT22;4477;48.736;9.176;2022-11-03T13:02:09;12.30;99.90
8882;DHT22;4477;48.736;9.176;2022-11-03T13:04:36;12.30;99.90
8882;DHT22;4477;48.736;9.176;2022-11-03T13:07:03;12.20;99.90
8882;DHT22;4477;48.736;9.176;2022-11-03T13:09:32;12.20;99.90
8882;DHT22;4477;48.736;9.176;2022-11-03T13:12:00;12.10;99.90
8882;DHT22;4477;48.736;9.176;2022-11-03T13:14:44;12.10;99.90
8882;DHT22;4477;48.736;9.176;2022-11-03T13:17:11;12.20;99.90
8882;DHT22;4477;48.736;9.176;2022-11-03T13:19:38;12.20;99.90
8882;DHT22;4477;48.736;9.176;2022-11-03T13:22:05;12.20;99.90
8882;DHT22;4477;48.736;9.176;2022-11-03T13:24:33;12.20;99.90
8882;DHT22;4477;48.736;9.176;2022-11-03T13:27:00;12.20;99.90
8882;DHT22;4477;48.736;9.176;2022-11-03T13:29:27;12.20;99.90
8882;DHT22;4477;48.736;9.176;2022-11-03T13:31:54;12.10;99.90
8882;DHT22;4477;48.736;9.176;2022-11-03T13:34:21;12.00;99.90
8882;DHT22;4477;48.736;9.176;2022-11-03T13:36:48;11.90;99.90
8882;DHT22;4477;48.736;9.176;2022-11-03T13:39:14;11.90;99.90
8882;DHT22;4477;48.736;9.176;2022-11-03T13:41:43;11.90;99.90
8882;DHT22;4477;48.736;9.176;2022-11-03T13:44:09;11.80;99.90
8882;DHT22;4477;48.736;9.176;2022-11-03T13:46:36;11.80;99.90
8882;DHT22;4477;48.736;9.176;2022-11-03T13:49:03;11.80;99.90
8882;DHT22;4477;48.736;9.176;2022-11-03T13:51:30;11.70;99.90
8882;DHT22;4477;48.736;9.176;2022-11-03T13:53:57;11.70;99.90
8882;DHT22;4477;48.736;9.176;2022-11-03T13:56:24;11.60;99.90
8882;DHT22;4477;48.736;9.176;2022-11-03T13:58:52;11.60;99.90
8882;DHT22;4477;48.736;9.176;2022-11-03T14:01:19;11.50;99.90
8882;DHT22;4477;48.736;9.176;2022-11-03T14:03:46;11.40;99.90
8882;DHT22;4477;48.736;9.176;2022-11-03T14:06:15;11.30;99.90
8882;DHT22;4477;48.736;9.176;2022-11-03T14:08:42;11.20;99.90
8882;DHT22;4477;48.736;9.176;2022-11-03T14:11:09;11.10;99.90
8882;DHT22;4477;48.736;9.176;2022-11-03T14:13:55;11.10;99.90
8882;DHT22;4477;48.736;9.176;2022-11-03T14:16:22;11.00;99.90
8882;DHT22;4477;48.736;9.176;2022-11-03T14:18:48;11.00;99.90
8882;DHT22;4477;48.736;9.176;2022-11-03T14:21:15;10.90;99.90
8882;DHT22;4477;48.736;9.176;2022-11-03T14:23:42;10.90;99.90
8882;DHT22;4477;48.736;9.176;2022-11-03T14:26:09;10.90;99.90
8882;DHT22;4477;48.736;9.176;2022-11-03T14:28:36;10.90;99.90
8882;DHT22;4477;48.736;9.176;2022-11-03T14:31:04;10.90;99.90
8882;DHT22;4477;48.736;9.176;2022-11-03T14:33:31;11.00;99.90
8882;DHT22;4477;48.736;9.176;2022-11-03T14:35:58;11.00;99.90
8882;DHT22;4477;48.736;9.176;2022-11-03T14:38:25;11.00;99.90
8882;DHT22;4477;48.736;9.176;2022-11-03T14:40:54;11.00;99.90
8882;DHT22;4477;48.736;9.176;2022-11-03T14:43:38;11.00;99.90
8882;DHT22;4477;48.736;9.176;2022-11-03T14:46:06;10.90;99.90
8882;DHT22;4477;48.736;9.176;2022-11-03T14:48:33;10.80;99.90
8882;DHT22;4477;48.736;9.176;2022-11-03T14:51:00;10.80;99.90
8882;DHT22;4477;48.736;9.176;2022-11-03T14:53:27;10.80;99.90
8882;DHT22;4477;48.736;9.176;2022-11-03T14:55:54;10.80;99.90
8882;DHT22;4477;48.736;9.176;2022-11-03T14:58:21;10.80;99.90
8882;DHT22;4477;48.736;9.176;2022-11-03T15:00:48;10.80;99.90
8882;DHT22;4477;48.736;9.176;2022-11-03T15:03:16;10.70;99.90
8882;DHT22;4477;48.736;9.176;2022-11-03T15:05:43;10.60;99.90
8882;DHT22;4477;48.736;9.176;2022-11-03T15:08:10;10.50;99.90
8882;DHT22;4477;48.736;9.176;2022-11-03T15:10:36;10.40;99.90
8882;DHT22;4477;48.736;9.176;2022-11-03T15:13:03;10.40;99.90
8882;DHT22;4477;48.736;9.176;2022-11-03T15:15:30;10.30;99.90
8882;DHT22;4477;48.736;9.176;2022-11-03T15:17:57;10.30;99.90
8882;DHT22;4477;48.736;9.176;2022-11-03T15:20:26;10.30;99.90
8882;DHT22;4477;48.736;9.176;2022-11-03T15:22:52;10.30;99.90
8882;DHT22;4477;48.736;9.176;2022-11-03T15:25:19;10.30;99.90
8882;DHT22;4477;48.736;9.176;2022-11-03T15:27:46;10.30;99.90
8882;DHT22;4477;48.736;9.176;2022-11-03T15:30:13;10.40;99.90
8882;DHT22;4477;48.736;9.176;2022-11-03T15:32:40;10.40;99.90
8882;DHT22;4477;48.736;9.176;2022-11-03T15:35:08;10.50;99.90
8882;DHT22;4477;48.736;9.176;2022-11-03T15:37:36;10.60;99.90
8882;DHT22;4477;48.736;9.176;2022-11-03T15:40:04;10.60;99.90
8882;DHT22;4477;48.736;9.176;2022-11-03T15:42:32;10.60;99.90
8882;DHT22;4477;48.736;9.176;2022-11-03T15:44:58;10.60;99.90
8882;DHT22;4477;48.736;9.176;2022-11-03T15:47:25;10.50;99.90
8882;DHT22;4477;48.736;9.176;2022-11-03T15:49:52;10.50;99.90
8882;DHT22;4477;48.736;9.176;2022-11-03T15:52:19;10.50;99.90
8882;DHT22;4477;48.736;9.176;2022-11-03T15:54:47;10.50;99.90
8882;DHT22;4477;48.736;9.176;2022-11-03T15:57:16;10.40;99.90
8882;DHT22;4477;48.736;9.176;2022-11-03T15:59:42;10.30;99.90
8882;DHT22;4477;48.736;9.176;2022-11-03T16:02:09;10.20;99.90
8882;DHT22;4477;48.736;9.176;2022-11-03T16:04:36;10.10;99.90
8882;DHT22;4477;48.736;9.176;2022-11-03T16:07:03;10.10;99.90
8882;DHT22;4477;48.736;9.176;2022-11-03T16:09:30;10.10;99.90
8882;DHT22;4477;48.736;9.176;2022-11-03T16:11:58;10.00;99.90
8882;DHT22;4477;48.736;9.176;2022-11-03T16:14:25;10.00;99.90
8882;DHT22;4477;48.736;9.176;2022-11-03T16:16:52;9.90;99.90
8882;DHT22;4477;48.736;9.176;2022-11-03T16:19:19;10.00;99.90
8882;DHT22;4477;48.736;9.176;2022-11-03T16:21:45;10.10;99.90
8882;DHT22;4477;48.736;9.176;2022-11-03T16:24:13;10.20;99.90
8882;DHT22;4477;48.736;9.176;2022-11-03T16:26:40;10.30;99.90
8882;DHT22;4477;48.736;9.176;2022-11-03T16:29:08;10.30;99.90
8882;DHT22;4477;48.736;9.176;2022-11-03T16:31:35;10.30;99.90
8882;DHT22;4477;48.736;9.176;2022-11-03T16:34:02;10.30;99.90
8882;DHT22;4477;48.736;9.176;2022-11-03T16:36:29;10.30;99.90
8882;DHT22;4477;48.736;9.176;2022-11-03T16:38:56;10.30;99.90
8882;DHT22;4477;48.736;9.176;2022-11-03T16:41:23;10.30;99.90
8882;DHT22;4477;48.736;9.176;2022-11-03T16:43:49;10.30;99.90
8882;DHT22;4477;48.736;9.176;2022-11-03T16:46:18;10.40;99.90
8882;DHT22;4477;48.736;9.176;2022-11-03T16:48:44;10.30;99.90
8882;DHT22;4477;48.736;9.176;2022-11-03T16:51:11;10.40;99.90